createdAt,value
2018-10-03T00:00:45.264Z,10.80
2018-10-03T00:03:14.836Z,10.70
2018-10-03T00:05:43.669Z,10.70
2018-10-03T00:08:12.500Z,10.70
2018-10-03T00:10:41.343Z,10.60
2018-10-03T00:13:10.175Z,10.60
2018-10-03T00:15:39.018Z,10.60
2018-10-03T00:18:07.850Z,10.70
2018-10-03T00:20:36.682Z,10.70
2018-10-03T00:23:05.533Z,10.70
2018-10-03T00:25:34.375Z,10.70
2018-10-03T00:28:03.205Z,10.70
2018-10-03T00:30:32.034Z,10.70
2018-10-03T00:33:01.620Z,10.70
2018-10-03T00:35:30.459Z,10.90
2018-10-03T00:37:59.299Z,10.90
2018-10-03T00:40:28.135Z,10.90
2018-10-03T00:42:56.971Z,11.00
2018-10-03T00:47:55.238Z,11.00
2018-10-03T00:50:24.079Z,11.10
2018-10-03T00:52:52.916Z,11.10
2018-10-03T00:55:21.755Z,11.20
2018-10-03T00:57:50.580Z,11.20
2018-10-03T01:00:19.410Z,11.20
2018-10-03T01:02:48.255Z,11.20
2018-10-03T01:05:17.087Z,11.30
2018-10-03T01:07:45.928Z,11.30
2018-10-03T01:10:14.753Z,11.30
2018-10-03T01:12:43.583Z,11.20
2018-10-03T01:15:13.180Z,11.30
2018-10-03T01:17:42.769Z,11.30
2018-10-03T01:20:11.596Z,11.30
2018-10-03T01:22:40.434Z,11.30
2018-10-03T01:25:09.253Z,11.30
2018-10-03T01:27:38.824Z,11.30
2018-10-03T01:30:07.657Z,11.30
2018-10-03T01:32:37.235Z,11.40
2018-10-03T01:35:06.073Z,11.30
2018-10-03T01:37:34.910Z,11.40
2018-10-03T01:40:03.744Z,11.40
2018-10-03T01:42:32.576Z,11.40
2018-10-03T01:45:01.411Z,11.40
2018-10-03T01:47:30.246Z,11.40
2018-10-03T01:49:59.075Z,11.40
2018-10-03T01:52:28.651Z,11.40
2018-10-03T01:54:57.473Z,11.40
2018-10-03T01:57:26.308Z,11.40
2018-10-03T01:59:55.143Z,11.50
2018-10-03T02:02:23.978Z,11.50
2018-10-03T02:04:52.818Z,11.50
2018-10-03T02:07:21.652Z,11.50
2018-10-03T02:09:50.483Z,11.50
2018-10-03T02:12:19.314Z,11.50
2018-10-03T02:14:48.241Z,11.50
2018-10-03T02:17:16.975Z,11.50
2018-10-03T02:19:46.547Z,11.40
2018-10-03T02:22:15.382Z,11.50
2018-10-03T02:24:44.220Z,11.40
2018-10-03T02:27:13.050Z,11.40
2018-10-03T02:29:42.631Z,11.40
2018-10-03T02:32:11.468Z,11.50
2018-10-03T02:34:40.302Z,11.50
2018-10-03T02:37:09.132Z,11.50
2018-10-03T02:39:37.970Z,11.50
2018-10-03T02:42:06.794Z,11.50
2018-10-03T02:44:35.655Z,11.50
2018-10-03T02:47:04.484Z,11.50
2018-10-03T02:49:33.307Z,11.50
2018-10-03T02:52:02.127Z,11.50
2018-10-03T02:54:30.978Z,11.50
2018-10-03T02:56:59.804Z,11.50
2018-10-03T02:59:28.635Z,11.50
2018-10-03T03:01:57.471Z,11.50
2018-10-03T03:04:26.303Z,11.50
2018-10-03T03:06:55.890Z,11.60
2018-10-03T03:09:24.743Z,11.60
2018-10-03T03:11:53.559Z,11.50
2018-10-03T03:14:22.394Z,11.50
2018-10-03T03:16:51.231Z,11.60
2018-10-03T03:19:20.077Z,11.50
2018-10-03T03:21:48.909Z,11.60
2018-10-03T03:24:17.745Z,11.60
2018-10-03T03:26:46.587Z,11.50
2018-10-03T03:29:15.414Z,11.60
2018-10-03T03:31:44.251Z,11.50
2018-10-03T03:34:13.079Z,11.50
2018-10-03T03:36:42.646Z,11.50
2018-10-03T03:41:40.325Z,11.50
2018-10-03T03:44:09.160Z,11.50
2018-10-03T03:46:37.989Z,11.50
2018-10-03T03:49:06.831Z,11.50
2018-10-03T03:51:35.669Z,11.50
2018-10-03T03:54:04.505Z,11.50
2018-10-03T03:56:33.334Z,11.50
2018-10-03T03:59:02.178Z,11.50
2018-10-03T04:01:31.015Z,11.50
2018-10-03T04:03:59.846Z,11.50
2018-10-03T04:06:28.697Z,11.50
2018-10-03T04:08:57.524Z,11.50
2018-10-03T04:11:26.365Z,11.50
2018-10-03T04:13:55.191Z,11.50
2018-10-03T04:16:24.023Z,11.50
2018-10-03T04:18:52.859Z,11.50
2018-10-03T04:21:21.682Z,11.50
2018-10-03T04:23:50.536Z,11.50
2018-10-03T04:26:19.356Z,11.50
2018-10-03T04:28:48.946Z,11.50
2018-10-03T04:31:17.777Z,11.40
2018-10-03T04:33:46.609Z,11.40
2018-10-03T04:36:15.442Z,11.40
2018-10-03T04:38:44.273Z,11.40
2018-10-03T04:41:13.097Z,11.40
2018-10-03T04:43:41.929Z,11.50
2018-10-03T04:46:10.761Z,11.50
2018-10-03T04:48:39.593Z,11.50
2018-10-03T04:51:08.426Z,11.50
2018-10-03T04:53:37.258Z,11.50
2018-10-03T04:56:06.840Z,11.50
2018-10-03T04:58:35.692Z,11.50
2018-10-03T05:01:04.522Z,11.60
2018-10-03T05:03:34.098Z,11.60
2018-10-03T05:06:02.930Z,11.70
2018-10-03T05:08:32.508Z,11.70
2018-10-03T05:11:01.339Z,11.70
2018-10-03T05:13:30.911Z,11.70
2018-10-03T05:15:59.739Z,11.70
2018-10-03T05:18:28.597Z,11.70
2018-10-03T05:20:57.431Z,11.70
2018-10-03T05:23:26.266Z,11.70
2018-10-03T05:25:55.851Z,11.70
2018-10-03T05:28:24.688Z,11.70
2018-10-03T05:30:54.269Z,11.60
2018-10-03T05:33:23.174Z,11.70
2018-10-03T05:35:51.970Z,11.70
2018-10-03T05:38:21.546Z,11.70
2018-10-03T05:40:50.381Z,11.70
2018-10-03T05:43:19.230Z,11.70
2018-10-03T05:45:48.066Z,11.70
2018-10-03T05:48:16.933Z,11.70
2018-10-03T05:50:45.749Z,11.70
2018-10-03T05:53:14.587Z,11.70
2018-10-03T05:55:43.423Z,11.70
2018-10-03T05:58:12.270Z,11.70
2018-10-03T06:00:41.111Z,11.70
2018-10-03T06:03:09.949Z,11.60
2018-10-03T06:05:38.814Z,11.60
2018-10-03T06:08:07.660Z,11.60
2018-10-03T06:10:36.488Z,11.60
2018-10-03T06:13:05.330Z,11.60
2018-10-03T06:15:34.161Z,11.50
2018-10-03T06:18:02.987Z,11.60
2018-10-03T06:23:01.280Z,11.60
2018-10-03T06:25:30.121Z,11.60
2018-10-03T06:27:59.029Z,11.70
2018-10-03T06:30:27.783Z,11.70
2018-10-03T06:32:56.609Z,11.70
2018-10-03T06:35:25.431Z,11.70
2018-10-03T06:37:55.004Z,11.70
2018-10-03T06:40:23.837Z,11.70
2018-10-03T06:42:52.685Z,11.70
2018-10-03T06:45:21.527Z,11.80
2018-10-03T06:47:50.402Z,11.80
2018-10-03T06:50:19.981Z,11.70
2018-10-03T06:52:48.823Z,11.80
2018-10-03T06:55:17.657Z,11.80
2018-10-03T06:57:46.497Z,11.80
2018-10-03T07:00:15.345Z,11.80
2018-10-03T07:02:44.176Z,11.90
2018-10-03T07:05:13.017Z,11.90
2018-10-03T07:07:41.839Z,12.00
2018-10-03T07:10:10.680Z,12.00
2018-10-03T07:12:39.515Z,12.00
2018-10-03T07:15:08.361Z,12.10
2018-10-03T07:17:37.191Z,12.10
2018-10-03T07:20:06.069Z,12.20
2018-10-03T07:22:34.867Z,12.20
2018-10-03T07:25:04.446Z,12.20
2018-10-03T07:27:33.273Z,12.30
2018-10-03T07:30:02.108Z,12.30
2018-10-03T07:32:30.955Z,12.40
2018-10-03T07:34:59.782Z,12.50
2018-10-03T07:37:28.635Z,12.60
2018-10-03T07:39:58.241Z,12.70
2018-10-03T07:42:27.075Z,12.70
2018-10-03T07:44:55.906Z,12.80
2018-10-03T07:47:25.494Z,12.80
2018-10-03T07:49:54.328Z,12.80
2018-10-03T07:52:23.159Z,12.90
2018-10-03T07:54:51.990Z,12.90
2018-10-03T07:57:20.821Z,12.90
2018-10-03T07:59:49.669Z,12.90
2018-10-03T08:02:18.508Z,13.00
2018-10-03T08:04:47.335Z,13.10
2018-10-03T08:07:16.176Z,13.20
2018-10-03T08:09:45.052Z,13.30
2018-10-03T08:12:13.843Z,13.30
2018-10-03T08:14:42.679Z,13.30
2018-10-03T08:17:12.317Z,13.30
2018-10-03T08:19:41.105Z,13.40
2018-10-03T08:22:10.064Z,13.50
2018-10-03T08:24:39.003Z,13.50
2018-10-03T08:27:07.773Z,13.50
2018-10-03T08:29:36.641Z,13.50
2018-10-03T08:32:06.287Z,13.50
2018-10-03T08:34:35.076Z,13.60
2018-10-03T08:37:16.217Z,13.70
2018-10-03T08:39:45.806Z,13.80
2018-10-03T08:42:14.655Z,13.90
2018-10-03T08:44:43.496Z,13.90
2018-10-03T08:47:12.348Z,14.00
2018-10-03T08:49:41.209Z,14.10
2018-10-03T08:52:10.064Z,14.20
2018-10-03T08:54:38.894Z,14.20
2018-10-03T08:57:07.739Z,14.30
2018-10-03T08:59:37.333Z,14.20
2018-10-03T09:02:06.182Z,14.40
2018-10-03T09:04:35.019Z,14.40
2018-10-03T09:07:04.610Z,14.60
2018-10-03T09:09:34.186Z,14.70
2018-10-03T09:12:03.033Z,14.70
2018-10-03T09:14:32.616Z,14.80
2018-10-03T09:17:01.453Z,14.80
2018-10-03T09:19:30.286Z,14.80
2018-10-03T09:21:59.131Z,14.80
2018-10-03T09:24:27.970Z,14.70
2018-10-03T09:29:26.241Z,14.80
2018-10-03T09:31:55.082Z,14.90
2018-10-03T09:34:24.651Z,15.00
2018-10-03T09:36:53.495Z,15.20
2018-10-03T09:39:22.411Z,15.20
2018-10-03T09:41:51.158Z,15.40
2018-10-03T09:44:20.001Z,15.60
2018-10-03T09:46:48.824Z,15.80
2018-10-03T09:49:18.397Z,16.10
2018-10-03T09:51:47.224Z,16.20
2018-10-03T09:54:16.795Z,16.20
2018-10-03T09:56:45.639Z,16.20
2018-10-03T09:59:14.478Z,16.30
2018-10-03T10:01:43.308Z,16.30
2018-10-03T10:04:12.143Z,16.30
2018-10-03T10:06:40.989Z,16.30
2018-10-03T10:09:09.813Z,16.30
2018-10-03T10:11:38.772Z,16.30
2018-10-03T10:14:07.483Z,16.20
2018-10-03T10:16:36.318Z,16.20
2018-10-03T10:19:05.900Z,16.20
2018-10-03T10:21:34.739Z,16.30
2018-10-03T10:24:03.576Z,16.40
2018-10-03T10:26:32.401Z,16.50
2018-10-03T10:29:01.983Z,16.50
2018-10-03T10:31:30.817Z,16.70
2018-10-03T10:33:59.673Z,17.00
2018-10-03T10:36:28.519Z,17.10
2018-10-03T10:38:57.371Z,17.00
2018-10-03T10:41:26.347Z,17.00
2018-10-03T10:43:55.053Z,16.80
2018-10-03T10:46:23.896Z,16.70
2018-10-03T10:48:52.734Z,16.70
2018-10-03T10:51:21.571Z,16.80
2018-10-03T10:53:50.393Z,16.80
2018-10-03T10:56:19.980Z,16.90
2018-10-03T10:58:48.925Z,16.80
2018-10-03T11:01:17.669Z,16.90
2018-10-03T11:03:47.245Z,16.80
2018-10-03T11:06:16.114Z,16.80
2018-10-03T11:08:44.955Z,16.80
2018-10-03T11:11:13.801Z,16.90
2018-10-03T11:13:42.632Z,16.90
2018-10-03T11:16:11.470Z,16.90
2018-10-03T11:18:40.328Z,16.90
2018-10-03T11:21:09.182Z,16.90
2018-10-03T11:23:38.062Z,17.00
2018-10-03T11:26:06.837Z,17.20
2018-10-03T11:28:35.673Z,17.30
2018-10-03T11:31:04.508Z,17.30
2018-10-03T11:33:33.350Z,17.30
2018-10-03T11:36:02.935Z,17.40
2018-10-03T11:38:31.763Z,17.40
2018-10-03T11:41:00.629Z,17.50
2018-10-03T11:43:30.197Z,17.60
2018-10-03T11:45:59.030Z,17.50
2018-10-03T11:48:28.608Z,17.50
2018-10-03T11:50:57.445Z,17.50
2018-10-03T11:53:26.274Z,17.60
2018-10-03T11:55:55.118Z,17.60
2018-10-03T11:58:23.946Z,17.80
2018-10-03T12:00:52.773Z,17.70
2018-10-03T12:03:21.678Z,17.90
2018-10-03T12:05:50.474Z,18.10
2018-10-03T12:08:19.304Z,18.30
2018-10-03T12:10:48.139Z,18.20
2018-10-03T12:13:17.710Z,18.20
2018-10-03T12:15:46.563Z,18.30
2018-10-03T12:18:15.396Z,18.30
2018-10-03T12:20:44.260Z,18.30
2018-10-03T12:23:13.091Z,18.50
2018-10-03T12:25:42.673Z,18.40
2018-10-03T12:28:11.502Z,18.40
2018-10-03T12:30:40.339Z,18.50
2018-10-03T12:33:09.166Z,18.60
2018-10-03T12:35:38.002Z,18.50
2018-10-03T12:38:32.885Z,18.60
2018-10-03T12:41:01.733Z,18.50
2018-10-03T12:43:30.570Z,18.60
2018-10-03T12:45:59.453Z,18.60
2018-10-03T12:48:28.271Z,18.50
2018-10-03T12:50:57.123Z,18.50
2018-10-03T12:53:25.951Z,18.50
2018-10-03T12:55:54.806Z,18.40
2018-10-03T12:58:23.663Z,18.50
2018-10-03T13:00:52.528Z,18.60
2018-10-03T13:03:21.357Z,18.70
2018-10-03T13:05:50.945Z,18.80
2018-10-03T13:08:20.533Z,18.80
2018-10-03T13:10:49.364Z,18.80
2018-10-03T13:13:18.202Z,18.70
2018-10-03T13:15:47.036Z,18.80
2018-10-03T13:18:16.624Z,18.80
2018-10-03T13:20:45.460Z,18.70
2018-10-03T13:23:14.301Z,18.60
2018-10-03T13:25:43.130Z,18.50
2018-10-03T13:28:11.964Z,18.40
2018-10-03T13:30:40.823Z,18.40
2018-10-03T13:33:09.677Z,18.40
2018-10-03T13:35:39.238Z,18.30
2018-10-03T13:38:08.120Z,18.30
2018-10-03T13:40:36.949Z,18.30
2018-10-03T13:43:05.745Z,18.20
2018-10-03T13:45:35.348Z,18.10
2018-10-03T13:48:04.943Z,18.10
2018-10-03T13:50:33.782Z,18.20
2018-10-03T13:53:02.603Z,18.20
2018-10-03T13:55:31.438Z,18.10
2018-10-03T13:58:00.280Z,18.10
2018-10-03T14:00:29.114Z,18.30
2018-10-03T14:02:57.953Z,18.40
2018-10-03T14:05:26.795Z,18.30
2018-10-03T14:07:55.639Z,18.40
2018-10-03T14:10:24.519Z,18.40
2018-10-03T14:12:53.366Z,18.40
2018-10-03T14:15:22.223Z,18.40
2018-10-03T14:17:51.093Z,18.40
2018-10-03T14:20:19.922Z,18.40
2018-10-03T14:22:48.780Z,18.50
2018-10-03T14:25:17.609Z,18.70
2018-10-03T14:27:46.448Z,18.90
2018-10-03T14:30:15.286Z,19.00
2018-10-03T14:32:44.121Z,18.90
2018-10-03T14:35:12.955Z,18.90
2018-10-03T14:37:41.805Z,18.90
2018-10-03T14:40:10.643Z,19.00
2018-10-03T14:42:39.469Z,18.90
2018-10-03T14:45:08.310Z,18.70
2018-10-03T14:47:37.135Z,18.60
2018-10-03T14:50:05.981Z,18.60
2018-10-03T14:52:35.586Z,18.50
2018-10-03T14:55:04.416Z,18.40
2018-10-03T14:57:33.241Z,18.40
2018-10-03T15:00:02.111Z,18.30
2018-10-03T15:02:30.957Z,18.40
2018-10-03T15:04:59.790Z,18.40
2018-10-03T15:07:28.619Z,18.30
2018-10-03T15:09:58.187Z,18.30
2018-10-03T15:12:27.015Z,18.30
2018-10-03T15:14:56.593Z,18.30
2018-10-03T15:17:25.417Z,18.30
2018-10-03T15:19:54.247Z,18.30
2018-10-03T15:22:23.082Z,18.30
2018-10-03T15:24:52.665Z,18.20
2018-10-03T15:27:21.492Z,18.20
2018-10-03T15:29:50.375Z,18.20
2018-10-03T15:32:19.163Z,18.20
2018-10-03T15:34:48.742Z,18.30
2018-10-03T15:37:17.572Z,18.20
2018-10-03T15:39:46.414Z,18.10
2018-10-03T15:42:15.262Z,18.00
2018-10-03T15:44:44.090Z,17.90
2018-10-03T15:47:12.929Z,17.80
2018-10-03T15:49:41.777Z,17.80
2018-10-03T15:52:10.599Z,17.80
2018-10-03T15:54:39.458Z,17.70
2018-10-03T15:57:08.319Z,17.60
2018-10-03T15:59:37.148Z,17.60
2018-10-03T16:02:05.985Z,17.60
2018-10-03T16:04:34.816Z,17.60
2018-10-03T16:07:03.663Z,17.60
2018-10-03T16:09:32.504Z,17.50
2018-10-03T16:12:01.342Z,17.50
2018-10-03T16:14:30.174Z,17.40
2018-10-03T16:16:59.037Z,17.30
2018-10-03T16:19:27.870Z,17.30
2018-10-03T16:21:56.696Z,17.20
2018-10-03T16:24:25.544Z,17.10
2018-10-03T16:26:55.112Z,17.10
2018-10-03T16:29:23.950Z,17.10
2018-10-03T16:31:53.521Z,17.00
2018-10-03T16:34:22.357Z,17.10
2018-10-03T16:36:51.199Z,17.00
2018-10-03T16:39:20.042Z,17.00
2018-10-03T16:41:48.878Z,16.90
2018-10-03T16:44:17.714Z,16.80
2018-10-03T16:46:46.559Z,16.70
2018-10-03T16:49:15.400Z,16.70
2018-10-03T16:51:44.253Z,16.60
2018-10-03T16:54:13.830Z,16.60
2018-10-03T16:56:42.668Z,16.50
2018-10-03T16:59:11.497Z,16.50
2018-10-03T17:01:40.340Z,16.40
2018-10-03T17:04:09.915Z,16.30
2018-10-03T17:06:38.757Z,16.30
2018-10-03T17:09:07.606Z,16.20
2018-10-03T17:11:36.453Z,16.10
2018-10-03T17:14:05.299Z,16.10
2018-10-03T17:16:34.132Z,16.00
2018-10-03T17:19:02.969Z,15.90
2018-10-03T17:21:31.824Z,15.90
2018-10-03T17:24:00.665Z,15.90
2018-10-03T17:26:29.497Z,15.80
2018-10-03T17:28:58.332Z,15.70
2018-10-03T17:31:27.909Z,15.60
2018-10-03T17:33:56.829Z,15.50
2018-10-03T17:36:25.610Z,15.60
2018-10-03T17:38:55.229Z,15.50
2018-10-03T17:41:24.065Z,15.40
2018-10-03T17:43:52.907Z,15.50
2018-10-03T17:46:21.750Z,15.40
2018-10-03T17:48:50.619Z,15.30
2018-10-03T17:51:19.419Z,15.30
2018-10-03T17:53:48.279Z,15.30
2018-10-03T17:56:17.128Z,15.30
2018-10-03T18:01:15.420Z,15.30
2018-10-03T18:03:44.274Z,15.20
2018-10-03T18:06:13.109Z,15.10
2018-10-03T18:08:41.964Z,15.10
2018-10-03T18:11:10.807Z,15.00
2018-10-03T18:13:39.787Z,15.00
2018-10-03T18:16:08.569Z,15.00
2018-10-03T18:18:37.361Z,14.80
2018-10-03T18:21:06.207Z,14.80
2018-10-03T18:23:35.042Z,14.80
2018-10-03T18:26:04.646Z,14.70
2018-10-03T18:28:33.488Z,14.70
2018-10-03T18:31:02.320Z,14.60
2018-10-03T18:33:31.906Z,14.60
2018-10-03T18:36:00.756Z,14.50
2018-10-03T18:38:29.619Z,14.50
2018-10-03T18:40:58.471Z,14.50
2018-10-03T18:43:27.317Z,14.40
2018-10-03T18:45:56.169Z,14.40
2018-10-03T18:48:25.033Z,14.30
2018-10-03T18:50:53.866Z,14.40
2018-10-03T18:53:22.744Z,14.40
2018-10-03T18:55:52.321Z,14.30
2018-10-03T18:58:21.165Z,14.30
2018-10-03T19:00:50.068Z,14.30
2018-10-03T19:03:18.863Z,14.20
2018-10-03T19:05:47.753Z,14.20
2018-10-03T19:08:16.552Z,14.20
2018-10-03T19:10:45.384Z,14.10
2018-10-03T19:13:14.967Z,14.00
2018-10-03T19:15:43.817Z,14.10
2018-10-03T19:18:12.709Z,14.00
2018-10-03T19:20:42.245Z,14.00
2018-10-03T19:23:11.839Z,13.90
2018-10-03T19:25:40.691Z,13.90
2018-10-03T19:28:09.543Z,13.90
2018-10-03T19:30:38.395Z,13.80
2018-10-03T19:33:07.243Z,13.80
2018-10-03T19:35:36.142Z,13.70
2018-10-03T19:38:04.945Z,13.60
2018-10-03T19:40:33.786Z,13.50
2018-10-03T19:43:02.643Z,13.50
2018-10-03T19:45:31.531Z,13.50
2018-10-03T19:48:00.349Z,13.50
2018-10-03T19:50:29.161Z,13.40
2018-10-03T19:52:58.793Z,13.40
2018-10-03T19:55:28.338Z,13.30
2018-10-03T19:57:57.198Z,13.40
2018-10-03T20:00:26.038Z,13.20
2018-10-03T20:02:54.910Z,13.20
2018-10-03T20:05:23.750Z,13.20
2018-10-03T20:07:52.594Z,13.10
2018-10-03T20:10:21.457Z,13.10
2018-10-03T20:12:50.301Z,13.10
2018-10-03T20:15:19.878Z,13.00
2018-10-03T20:17:48.730Z,13.00
2018-10-03T20:20:17.578Z,13.00
2018-10-03T20:22:46.409Z,12.90
2018-10-03T20:25:15.245Z,12.90
2018-10-03T20:27:44.873Z,12.80
2018-10-03T20:30:13.717Z,12.80
2018-10-03T20:32:42.581Z,12.80
2018-10-03T20:35:11.424Z,12.70
2018-10-03T20:37:41.015Z,12.60
2018-10-03T20:40:09.895Z,12.70
2018-10-03T20:42:38.725Z,12.70
2018-10-03T20:45:08.321Z,12.60
2018-10-03T20:47:37.172Z,12.60
2018-10-03T20:50:06.014Z,12.60
2018-10-03T20:52:37.035Z,12.60
2018-10-03T20:55:05.685Z,12.50
2018-10-03T20:57:34.522Z,12.40
2018-10-03T21:00:04.167Z,12.30
2018-10-03T21:02:33.704Z,12.20
2018-10-03T21:05:02.547Z,12.20
2018-10-03T21:07:31.388Z,12.10
2018-10-03T21:10:00.232Z,12.10
2018-10-03T21:12:29.074Z,12.20
2018-10-03T21:14:57.913Z,12.10
2018-10-03T21:17:26.745Z,12.10
2018-10-03T21:19:55.594Z,12.00
2018-10-03T21:22:24.445Z,11.90
2018-10-03T21:24:53.328Z,11.90
2018-10-03T21:27:22.133Z,11.90
2018-10-03T21:29:50.986Z,11.80
2018-10-03T21:32:19.836Z,11.80
2018-10-03T21:34:48.690Z,11.80
2018-10-03T21:37:18.269Z,11.70
2018-10-03T21:39:47.121Z,11.70
2018-10-03T21:42:15.967Z,11.60
2018-10-03T21:44:45.588Z,11.70
2018-10-03T21:47:14.392Z,11.80
2018-10-03T21:49:43.361Z,11.70
2018-10-03T21:52:12.108Z,11.70
2018-10-03T21:54:40.972Z,11.60
2018-10-03T21:57:09.820Z,11.60
2018-10-03T21:59:39.415Z,11.50
2018-10-03T22:02:08.259Z,11.60
2018-10-03T22:04:37.085Z,11.50
2018-10-03T22:07:05.913Z,11.50
2018-10-03T22:09:34.821Z,11.40
2018-10-03T22:12:03.664Z,11.40
2018-10-03T22:17:01.957Z,11.30
2018-10-03T22:19:30.808Z,11.30
2018-10-03T22:21:59.648Z,11.30
2018-10-03T22:24:28.495Z,11.30
2018-10-03T22:26:57.326Z,11.30
2018-10-03T22:29:26.168Z,11.30
2018-10-03T22:31:55.011Z,11.30
2018-10-03T22:34:24.575Z,11.30
2018-10-03T22:36:53.425Z,11.20
2018-10-03T22:39:22.289Z,11.20
2018-10-03T22:41:51.869Z,11.10
2018-10-03T22:44:20.717Z,11.00
2018-10-03T22:46:49.559Z,10.90
2018-10-03T22:49:18.412Z,10.90
2018-10-03T22:51:47.251Z,10.80
2018-10-03T22:54:16.087Z,10.80
2018-10-03T22:56:44.928Z,10.70
2018-10-03T22:59:14.501Z,10.60
2018-10-03T23:01:43.344Z,10.70
2018-10-03T23:04:12.177Z,10.80
2018-10-03T23:06:41.003Z,10.80
2018-10-03T23:09:09.860Z,10.80
2018-10-03T23:11:38.686Z,10.80
2018-10-03T23:14:08.260Z,10.80
2018-10-03T23:16:37.100Z,10.80
2018-10-03T23:19:05.944Z,10.80
2018-10-03T23:21:34.797Z,10.80
2018-10-03T23:24:03.638Z,10.90
2018-10-03T23:26:32.486Z,10.90
2018-10-03T23:29:01.337Z,10.90
2018-10-03T23:31:30.180Z,10.70
2018-10-03T23:33:59.011Z,10.70
2018-10-03T23:36:27.853Z,10.60
2018-10-03T23:38:56.698Z,10.50
2018-10-03T23:41:25.541Z,10.40
2018-10-03T23:43:54.376Z,10.20
2018-10-03T23:46:23.221Z,10.20
2018-10-03T23:48:52.066Z,10.30
2018-10-03T23:51:20.909Z,10.30
2018-10-03T23:53:49.749Z,10.30
2018-10-03T23:56:18.581Z,10.20
